Monterey, VA (24465)

5:54 PM EDT on August 27, 2016 (GMT -0400)
KVAMONTE3 | | Change Station

Elev 2924 ft 38.41 °N, 79.58 °W | Updated 4 minutes ago

Scattered Clouds
Scattered Clouds
82.9 °F
Feels Like 86 °F
N
7.0
Wind Variable Wind from SSE
Gusts 7.0 mph

Today
High -- | Low -- °F
--% Chance of Precip.
Yesterday
High -- | Low -- °F
Precip. -- in
Pressure 30.31 in
Visibility 10.0 miles
Clouds Scattered Clouds 5000 ft
Scattered Clouds 7000 ft
Heat Index 86 °F
Dew Point 68 °F
Humidity 60%
Rainfall 0.00 in
Snow Depth Not available.
6:43 AM 7:55 PM
Waning Crescent, 21% visible
METAR KHSP 272135Z AUTO 13004KT 10SM SCT050 SCT070 26/19 A3031 RMK AO2 LTG DSNT NW T02630192
Pressure 30.31 in
Visibility 10.0 miles
Clouds Scattered Clouds 5000 ft
Scattered Clouds 7000 ft
Heat Index 86 °F
Dew Point 68 °F
Humidity 60%
Rainfall 0.00 in
Snow Depth Not available.
6:43 AM 7:55 PM
Waning Crescent, 21% visible
METAR KHSP 272135Z AUTO 13004KT 10SM SCT050 SCT070 26/19 A3031 RMK AO2 LTG DSNT NW T02630192

10-Day Weather Forecast

Almanac

Astronomy

Aug. 27, 2016 Rise Set
Actual Time
Civil Twilight
Nautical Twilight
Astronomical Twilight
Moon
Length of Visible Light
Length of Day
Tomorrow will be .
, % of the Moon is Illuminated

Today's Extremes

State Highs State Lows

Community

WunderPhotos

Upload Photos

1,935,455 photos uploaded!

WunderBlog® & News

Nearby

Air Quality

  Air Quality AQ Index Pollutant
Not available.

Snow Depth

Station Depth Elevation

Earthquake Activity

City Distance Mag. Time & Date
Minimum magnitude displayed is 2.5.

Coastal Water Temperatures

Place Temperature

Stations

Nearby Weather Stations

Station Location Temp. Windchill Dew Point Humidity Wind Precip. Elev Updated Type
                   

Watches & Warnings

There are currently no watches in effect.